Terminal Aerodrome Forecast
Issued by NWS

Home | Current Version | Previous Version | Text Only | Print | Product List | Glossary On
Versions: 1 2 3 4 5 6 7 8 9 10 11 12 13 14 15 16 17 18 19 20 21
000
FTUS45 KTFX 201751
TAFLWT
TAF
KLWT 201751Z 2018/2118 28005KT P6SM -SHRA SCT060 BKN100
     FM210000 VRB06KT 6SM -SHRA SCT025 BKN050
      TEMPO 2100/2104 4SM -RA BKN009
     FM210500 VRB05KT 6SM -RA SCT005 OVC020
     FM211500 29014G22KT 6SM -RA SCT009 OVC025=

USA.gov is the U.S. government's official web portal to all federal, state and local government web resources and services.